sensor_id;sensor_type;location;lat;lon;timestamp;P1;durP1;ratioP1;P2;durP2;ratioP2
44694;SDS011;32845;59.422;17.930;2023-07-31T00:00:15;8.15;;;3.13;;
44694;SDS011;32845;59.422;17.930;2023-07-31T00:04:46;9.73;;;3.42;;
44694;SDS011;32845;59.422;17.930;2023-07-31T00:09:17;6.70;;;4.07;;
44694;SDS011;32845;59.422;17.930;2023-07-31T00:13:47;10.18;;;4.22;;
44694;SDS011;32845;59.422;17.930;2023-07-31T00:18:18;8.05;;;4.18;;
44694;SDS011;32845;59.422;17.930;2023-07-31T00:22:49;6.97;;;3.47;;
44694;SDS011;32845;59.422;17.930;2023-07-31T00:27:19;7.55;;;3.58;;
44694;SDS011;32845;59.422;17.930;2023-07-31T00:31:50;4.07;;;3.35;;
44694;SDS011;32845;59.422;17.930;2023-07-31T00:36:20;5.93;;;3.30;;
44694;SDS011;32845;59.422;17.930;2023-07-31T00:40:51;5.45;;;3.50;;
44694;SDS011;32845;59.422;17.930;2023-07-31T00:45:21;7.80;;;3.50;;
44694;SDS011;32845;59.422;17.930;2023-07-31T00:49:53;12.90;;;4.05;;
44694;SDS011;32845;59.422;17.930;2023-07-31T00:54:25;4.65;;;3.13;;
44694;SDS011;32845;59.422;17.930;2023-07-31T00:58:56;7.32;;;4.55;;
44694;SDS011;32845;59.422;17.930;2023-07-31T01:03:26;4.45;;;3.15;;
44694;SDS011;32845;59.422;17.930;2023-07-31T01:08:04;4.97;;;4.00;;
44694;SDS011;32845;59.422;17.930;2023-07-31T01:12:48;6.40;;;3.80;;
44694;SDS011;32845;59.422;17.930;2023-07-31T01:17:21;5.18;;;3.85;;
44694;SDS011;32845;59.422;17.930;2023-07-31T01:26:38;5.97;;;3.97;;
44694;SDS011;32845;59.422;17.930;2023-07-31T01:31:10;7.70;;;3.80;;
44694;SDS011;32845;59.422;17.930;2023-07-31T01:35:45;5.97;;;3.80;;
44694;SDS011;32845;59.422;17.930;2023-07-31T01:40:18;8.98;;;4.20;;
44694;SDS011;32845;59.422;17.930;2023-07-31T01:44:49;6.55;;;4.45;;
44694;SDS011;32845;59.422;17.930;2023-07-31T01:49:19;8.00;;;3.90;;
44694;SDS011;32845;59.422;17.930;2023-07-31T01:53:50;5.38;;;4.15;;
44694;SDS011;32845;59.422;17.930;2023-07-31T01:58:21;6.57;;;4.32;;
44694;SDS011;32845;59.422;17.930;2023-07-31T02:02:52;9.82;;;3.97;;
44694;SDS011;32845;59.422;17.930;2023-07-31T02:07:23;5.57;;;3.42;;
44694;SDS011;32845;59.422;17.930;2023-07-31T02:11:54;7.30;;;4.40;;
44694;SDS011;32845;59.422;17.930;2023-07-31T02:16:24;10.20;;;4.20;;
44694;SDS011;32845;59.422;17.930;2023-07-31T02:20:55;7.25;;;4.28;;
44694;SDS011;32845;59.422;17.930;2023-07-31T02:25:26;5.15;;;3.78;;
44694;SDS011;32845;59.422;17.930;2023-07-31T02:29:56;5.88;;;3.45;;
44694;SDS011;32845;59.422;17.930;2023-07-31T02:34:29;7.45;;;3.75;;
44694;SDS011;32845;59.422;17.930;2023-07-31T02:38:59;4.20;;;3.20;;
44694;SDS011;32845;59.422;17.930;2023-07-31T02:43:30;7.15;;;3.70;;
44694;SDS011;32845;59.422;17.930;2023-07-31T02:48:01;8.48;;;3.65;;
44694;SDS011;32845;59.422;17.930;2023-07-31T02:52:31;6.35;;;3.78;;
44694;SDS011;32845;59.422;17.930;2023-07-31T02:57:02;9.63;;;4.07;;
44694;SDS011;32845;59.422;17.930;2023-07-31T03:01:33;8.73;;;4.47;;
44694;SDS011;32845;59.422;17.930;2023-07-31T03:06:03;6.20;;;4.07;;
44694;SDS011;32845;59.422;17.930;2023-07-31T03:10:34;7.47;;;4.53;;
44694;SDS011;32845;59.422;17.930;2023-07-31T03:15:05;7.72;;;4.82;;
44694;SDS011;32845;59.422;17.930;2023-07-31T03:19:36;6.22;;;4.28;;
44694;SDS011;32845;59.422;17.930;2023-07-31T03:24:06;8.57;;;3.92;;
44694;SDS011;32845;59.422;17.930;2023-07-31T03:28:37;7.13;;;4.30;;
44694;SDS011;32845;59.422;17.930;2023-07-31T03:33:07;7.07;;;4.25;;
44694;SDS011;32845;59.422;17.930;2023-07-31T03:37:38;9.00;;;5.03;;
44694;SDS011;32845;59.422;17.930;2023-07-31T03:42:08;10.32;;;5.32;;
44694;SDS011;32845;59.422;17.930;2023-07-31T03:46:39;9.85;;;5.95;;
44694;SDS011;32845;59.422;17.930;2023-07-31T03:51:10;8.75;;;5.65;;
44694;SDS011;32845;59.422;17.930;2023-07-31T03:55:40;7.70;;;5.63;;
44694;SDS011;32845;59.422;17.930;2023-07-31T04:00:11;7.32;;;5.25;;
44694;SDS011;32845;59.422;17.930;2023-07-31T04:04:42;6.68;;;4.70;;
44694;SDS011;32845;59.422;17.930;2023-07-31T04:09:12;12.50;;;4.82;;
44694;SDS011;32845;59.422;17.930;2023-07-31T04:13:43;7.35;;;5.30;;
44694;SDS011;32845;59.422;17.930;2023-07-31T04:18:13;6.60;;;4.55;;
44694;SDS011;32845;59.422;17.930;2023-07-31T04:22:44;8.40;;;5.38;;
44694;SDS011;32845;59.422;17.930;2023-07-31T04:27:15;9.63;;;4.82;;
44694;SDS011;32845;59.422;17.930;2023-07-31T04:31:45;10.32;;;5.65;;
44694;SDS011;32845;59.422;17.930;2023-07-31T04:36:16;10.57;;;6.05;;
44694;SDS011;32845;59.422;17.930;2023-07-31T04:40:46;13.23;;;6.07;;
44694;SDS011;32845;59.422;17.930;2023-07-31T04:45:17;10.45;;;6.07;;
44694;SDS011;32845;59.422;17.930;2023-07-31T04:49:48;11.68;;;6.85;;
44694;SDS011;32845;59.422;17.930;2023-07-31T04:54:18;9.68;;;6.47;;
44694;SDS011;32845;59.422;17.930;2023-07-31T04:58:49;16.05;;;7.43;;
44694;SDS011;32845;59.422;17.930;2023-07-31T05:03:19;11.10;;;7.35;;
44694;SDS011;32845;59.422;17.930;2023-07-31T05:07:50;11.30;;;7.15;;
44694;SDS011;32845;59.422;17.930;2023-07-31T05:12:21;12.50;;;7.18;;
44694;SDS011;32845;59.422;17.930;2023-07-31T05:16:51;14.90;;;7.97;;
44694;SDS011;32845;59.422;17.930;2023-07-31T05:21:22;11.05;;;7.60;;
44694;SDS011;32845;59.422;17.930;2023-07-31T05:25:54;13.15;;;7.97;;
44694;SDS011;32845;59.422;17.930;2023-07-31T05:30:24;11.45;;;7.72;;
44694;SDS011;32845;59.422;17.930;2023-07-31T05:34:55;15.43;;;7.35;;
44694;SDS011;32845;59.422;17.930;2023-07-31T05:39:25;11.98;;;7.57;;
44694;SDS011;32845;59.422;17.930;2023-07-31T05:43:56;12.90;;;6.75;;
44694;SDS011;32845;59.422;17.930;2023-07-31T05:48:27;9.73;;;7.13;;
44694;SDS011;32845;59.422;17.930;2023-07-31T05:52:57;9.40;;;6.72;;
44694;SDS011;32845;59.422;17.930;2023-07-31T05:57:28;10.95;;;7.63;;
44694;SDS011;32845;59.422;17.930;2023-07-31T06:01:58;10.50;;;6.47;;
44694;SDS011;32845;59.422;17.930;2023-07-31T06:06:29;11.32;;;6.90;;
44694;SDS011;32845;59.422;17.930;2023-07-31T06:11:00;10.63;;;6.15;;
44694;SDS011;32845;59.422;17.930;2023-07-31T06:15:31;7.72;;;5.05;;
44694;SDS011;32845;59.422;17.930;2023-07-31T06:20:01;7.22;;;4.88;;
44694;SDS011;32845;59.422;17.930;2023-07-31T06:24:35;11.07;;;5.32;;
44694;SDS011;32845;59.422;17.930;2023-07-31T06:29:05;12.27;;;6.03;;
44694;SDS011;32845;59.422;17.930;2023-07-31T06:33:36;9.13;;;4.70;;
44694;SDS011;32845;59.422;17.930;2023-07-31T06:38:06;14.00;;;6.13;;
44694;SDS011;32845;59.422;17.930;2023-07-31T06:42:37;13.93;;;5.97;;
44694;SDS011;32845;59.422;17.930;2023-07-31T06:47:08;11.18;;;5.60;;
44694;SDS011;32845;59.422;17.930;2023-07-31T06:51:38;13.77;;;4.80;;
44694;SDS011;32845;59.422;17.930;2023-07-31T06:56:09;8.82;;;4.18;;
44694;SDS011;32845;59.422;17.930;2023-07-31T07:00:40;6.35;;;3.75;;
44694;SDS011;32845;59.422;17.930;2023-07-31T07:05:10;7.80;;;3.47;;
44694;SDS011;32845;59.422;17.930;2023-07-31T07:09:41;9.70;;;3.10;;
44694;SDS011;32845;59.422;17.930;2023-07-31T07:14:12;11.18;;;2.75;;
44694;SDS011;32845;59.422;17.930;2023-07-31T07:18:42;4.45;;;2.05;;
44694;SDS011;32845;59.422;17.930;2023-07-31T07:23:13;13.18;;;2.85;;
44694;SDS011;32845;59.422;17.930;2023-07-31T07:27:44;5.57;;;2.08;;
44694;SDS011;32845;59.422;17.930;2023-07-31T07:32:14;7.20;;;2.00;;
44694;SDS011;32845;59.422;17.930;2023-07-31T07:36:45;6.30;;;1.73;;
44694;SDS011;32845;59.422;17.930;2023-07-31T07:41:16;11.13;;;1.67;;
44694;SDS011;32845;59.422;17.930;2023-07-31T07:45:46;4.93;;;1.52;;
44694;SDS011;32845;59.422;17.930;2023-07-31T07:50:17;10.73;;;2.55;;
44694;SDS011;32845;59.422;17.930;2023-07-31T07:54:47;8.15;;;2.70;;
44694;SDS011;32845;59.422;17.930;2023-07-31T07:59:18;6.03;;;2.30;;
44694;SDS011;32845;59.422;17.930;2023-07-31T08:03:49;8.50;;;1.95;;
44694;SDS011;32845;59.422;17.930;2023-07-31T08:08:20;5.30;;;2.33;;
44694;SDS011;32845;59.422;17.930;2023-07-31T08:12:50;7.75;;;2.08;;
44694;SDS011;32845;59.422;17.930;2023-07-31T08:17:21;7.93;;;2.60;;
44694;SDS011;32845;59.422;17.930;2023-07-31T08:21:52;6.38;;;2.38;;
44694;SDS011;32845;59.422;17.930;2023-07-31T08:26:22;9.82;;;2.35;;
44694;SDS011;32845;59.422;17.930;2023-07-31T08:30:53;7.30;;;2.05;;
44694;SDS011;32845;59.422;17.930;2023-07-31T08:35:24;5.05;;;2.00;;
44694;SDS011;32845;59.422;17.930;2023-07-31T08:39:55;6.30;;;2.30;;
44694;SDS011;32845;59.422;17.930;2023-07-31T08:44:26;9.93;;;2.58;;
44694;SDS011;32845;59.422;17.930;2023-07-31T08:48:57;10.50;;;2.28;;
44694;SDS011;32845;59.422;17.930;2023-07-31T08:53:29;13.98;;;2.90;;
44694;SDS011;32845;59.422;17.930;2023-07-31T08:57:59;9.68;;;2.10;;
44694;SDS011;32845;59.422;17.930;2023-07-31T09:02:44;9.40;;;2.55;;
44694;SDS011;32845;59.422;17.930;2023-07-31T09:07:33;8.63;;;2.05;;
44694;SDS011;32845;59.422;17.930;2023-07-31T09:12:05;6.38;;;2.17;;
44694;SDS011;32845;59.422;17.930;2023-07-31T09:16:36;6.07;;;2.03;;
44694;SDS011;32845;59.422;17.930;2023-07-31T09:21:30;10.57;;;2.40;;
44694;SDS011;32845;59.422;17.930;2023-07-31T09:26:00;13.15;;;2.47;;
44694;SDS011;32845;59.422;17.930;2023-07-31T09:30:36;6.63;;;1.88;;
44694;SDS011;32845;59.422;17.930;2023-07-31T09:35:21;9.63;;;1.83;;
44694;SDS011;32845;59.422;17.930;2023-07-31T09:39:57;9.75;;;2.38;;
44694;SDS011;32845;59.422;17.930;2023-07-31T09:44:38;6.78;;;1.88;;
44694;SDS011;32845;59.422;17.930;2023-07-31T09:49:11;4.53;;;1.70;;
44694;SDS011;32845;59.422;17.930;2023-07-31T09:53:49;7.85;;;1.95;;
44694;SDS011;32845;59.422;17.930;2023-07-31T09:58:20;7.10;;;1.63;;
44694;SDS011;32845;59.422;17.930;2023-07-31T10:02:51;9.50;;;1.63;;
44694;SDS011;32845;59.422;17.930;2023-07-31T10:07:23;10.68;;;1.92;;
44694;SDS011;32845;59.422;17.930;2023-07-31T10:12:00;8.30;;;1.98;;
44694;SDS011;32845;59.422;17.930;2023-07-31T10:16:33;10.18;;;2.17;;
44694;SDS011;32845;59.422;17.930;2023-07-31T10:21:05;8.82;;;1.42;;
44694;SDS011;32845;59.422;17.930;2023-07-31T10:25:36;6.10;;;1.50;;
44694;SDS011;32845;59.422;17.930;2023-07-31T10:30:27;3.47;;;1.17;;
44694;SDS011;32845;59.422;17.930;2023-07-31T10:35:00;5.00;;;1.60;;
44694;SDS011;32845;59.422;17.930;2023-07-31T10:39:34;7.32;;;1.80;;
44694;SDS011;32845;59.422;17.930;2023-07-31T10:44:09;10.85;;;1.80;;
44694;SDS011;32845;59.422;17.930;2023-07-31T10:48:43;4.55;;;1.45;;
44694;SDS011;32845;59.422;17.930;2023-07-31T10:53:29;3.15;;;1.08;;
44694;SDS011;32845;59.422;17.930;2023-07-31T10:58:08;7.90;;;1.38;;
44694;SDS011;32845;59.422;17.930;2023-07-31T11:02:41;9.98;;;1.67;;
44694;SDS011;32845;59.422;17.930;2023-07-31T11:07:35;2.85;;;1.30;;
44694;SDS011;32845;59.422;17.930;2023-07-31T11:12:16;4.55;;;1.20;;
44694;SDS011;32845;59.422;17.930;2023-07-31T11:16:50;7.22;;;1.40;;
44694;SDS011;32845;59.422;17.930;2023-07-31T11:21:24;4.70;;;1.38;;
44694;SDS011;32845;59.422;17.930;2023-07-31T11:25:58;4.03;;;1.33;;
44694;SDS011;32845;59.422;17.930;2023-07-31T11:30:29;4.38;;;1.30;;
44694;SDS011;32845;59.422;17.930;2023-07-31T11:35:00;4.60;;;1.15;;
44694;SDS011;32845;59.422;17.930;2023-07-31T11:39:31;7.38;;;1.48;;
44694;SDS011;32845;59.422;17.930;2023-07-31T11:44:02;8.27;;;1.90;;
44694;SDS011;32845;59.422;17.930;2023-07-31T11:48:33;4.57;;;1.48;;
44694;SDS011;32845;59.422;17.930;2023-07-31T11:53:07;6.95;;;1.90;;
44694;SDS011;32845;59.422;17.930;2023-07-31T11:57:39;6.57;;;1.80;;
44694;SDS011;32845;59.422;17.930;2023-07-31T12:02:11;6.13;;;1.75;;
44694;SDS011;32845;59.422;17.930;2023-07-31T12:06:42;5.03;;;1.60;;
44694;SDS011;32845;59.422;17.930;2023-07-31T12:11:14;2.53;;;1.38;;
44694;SDS011;32845;59.422;17.930;2023-07-31T12:15:45;4.75;;;1.55;;
44694;SDS011;32845;59.422;17.930;2023-07-31T12:20:16;4.00;;;1.40;;
44694;SDS011;32845;59.422;17.930;2023-07-31T12:24:46;4.05;;;1.50;;
44694;SDS011;32845;59.422;17.930;2023-07-31T12:29:17;16.83;;;2.45;;
44694;SDS011;32845;59.422;17.930;2023-07-31T12:33:48;7.05;;;1.88;;
44694;SDS011;32845;59.422;17.930;2023-07-31T12:38:20;6.45;;;1.70;;
44694;SDS011;32845;59.422;17.930;2023-07-31T12:42:51;22.40;;;2.47;;
44694;SDS011;32845;59.422;17.930;2023-07-31T12:47:22;6.47;;;1.65;;
44694;SDS011;32845;59.422;17.930;2023-07-31T12:51:52;7.15;;;1.02;;
44694;SDS011;32845;59.422;17.930;2023-07-31T12:56:24;5.20;;;1.10;;
44694;SDS011;32845;59.422;17.930;2023-07-31T13:00:54;5.30;;;1.70;;
44694;SDS011;32845;59.422;17.930;2023-07-31T13:05:25;17.13;;;1.90;;
44694;SDS011;32845;59.422;17.930;2023-07-31T13:09:56;12.38;;;2.08;;
44694;SDS011;32845;59.422;17.930;2023-07-31T13:14:27;6.25;;;2.20;;
44694;SDS011;32845;59.422;17.930;2023-07-31T13:18:58;5.70;;;2.05;;
44694;SDS011;32845;59.422;17.930;2023-07-31T13:23:29;10.57;;;2.03;;
44694;SDS011;32845;59.422;17.930;2023-07-31T13:27:59;4.57;;;1.90;;
44694;SDS011;32845;59.422;17.930;2023-07-31T13:32:31;3.97;;;1.60;;
44694;SDS011;32845;59.422;17.930;2023-07-31T13:37:02;7.55;;;2.50;;
44694;SDS011;32845;59.422;17.930;2023-07-31T13:41:32;4.72;;;2.00;;
44694;SDS011;32845;59.422;17.930;2023-07-31T13:46:03;7.07;;;1.60;;
44694;SDS011;32845;59.422;17.930;2023-07-31T13:50:36;4.45;;;1.38;;
44694;SDS011;32845;59.422;17.930;2023-07-31T13:55:07;6.28;;;1.65;;
44694;SDS011;32845;59.422;17.930;2023-07-31T13:59:38;4.97;;;1.77;;
44694;SDS011;32845;59.422;17.930;2023-07-31T14:04:08;6.22;;;1.75;;
44694;SDS011;32845;59.422;17.930;2023-07-31T14:08:39;5.30;;;1.80;;
44694;SDS011;32845;59.422;17.930;2023-07-31T14:13:09;2.78;;;1.52;;
44694;SDS011;32845;59.422;17.930;2023-07-31T14:17:40;3.55;;;1.65;;
44694;SDS011;32845;59.422;17.930;2023-07-31T14:22:10;5.32;;;1.50;;
44694;SDS011;32845;59.422;17.930;2023-07-31T14:26:41;4.55;;;1.23;;
44694;SDS011;32845;59.422;17.930;2023-07-31T14:31:12;2.60;;;1.20;;
44694;SDS011;32845;59.422;17.930;2023-07-31T14:35:42;1.33;;;0.93;;
44694;SDS011;32845;59.422;17.930;2023-07-31T14:40:13;2.50;;;1.17;;
44694;SDS011;32845;59.422;17.930;2023-07-31T14:44:44;2.35;;;1.40;;
44694;SDS011;32845;59.422;17.930;2023-07-31T14:49:14;2.60;;;1.10;;
44694;SDS011;32845;59.422;17.930;2023-07-31T14:53:45;4.05;;;1.52;;
44694;SDS011;32845;59.422;17.930;2023-07-31T14:58:17;5.88;;;1.40;;
44694;SDS011;32845;59.422;17.930;2023-07-31T15:02:48;3.22;;;1.42;;
44694;SDS011;32845;59.422;17.930;2023-07-31T15:07:18;9.45;;;2.05;;
44694;SDS011;32845;59.422;17.930;2023-07-31T15:11:49;8.50;;;1.70;;
44694;SDS011;32845;59.422;17.930;2023-07-31T15:16:20;4.75;;;2.10;;
44694;SDS011;32845;59.422;17.930;2023-07-31T15:21:00;8.68;;;1.98;;
44694;SDS011;32845;59.422;17.930;2023-07-31T15:25:31;3.60;;;1.88;;
44694;SDS011;32845;59.422;17.930;2023-07-31T15:30:01;6.75;;;2.00;;
44694;SDS011;32845;59.422;17.930;2023-07-31T15:34:35;8.30;;;2.78;;
44694;SDS011;32845;59.422;17.930;2023-07-31T15:39:05;4.43;;;2.45;;
44694;SDS011;32845;59.422;17.930;2023-07-31T15:43:38;7.35;;;2.03;;
44694;SDS011;32845;59.422;17.930;2023-07-31T15:48:08;4.95;;;2.20;;
44694;SDS011;32845;59.422;17.930;2023-07-31T15:52:39;7.88;;;2.33;;
44694;SDS011;32845;59.422;17.930;2023-07-31T15:57:10;9.98;;;2.80;;
44694;SDS011;32845;59.422;17.930;2023-07-31T16:01:40;6.72;;;2.65;;
44694;SDS011;32845;59.422;17.930;2023-07-31T16:06:11;8.45;;;3.08;;
44694;SDS011;32845;59.422;17.930;2023-07-31T16:10:42;8.60;;;4.15;;
44694;SDS011;32845;59.422;17.930;2023-07-31T16:15:12;11.88;;;4.00;;
44694;SDS011;32845;59.422;17.930;2023-07-31T16:19:43;8.82;;;3.28;;
44694;SDS011;32845;59.422;17.930;2023-07-31T16:24:13;9.07;;;3.08;;
44694;SDS011;32845;59.422;17.930;2023-07-31T16:28:44;8.25;;;2.80;;
44694;SDS011;32845;59.422;17.930;2023-07-31T16:33:14;8.13;;;3.33;;
44694;SDS011;32845;59.422;17.930;2023-07-31T16:37:45;8.85;;;3.33;;
44694;SDS011;32845;59.422;17.930;2023-07-31T16:42:20;14.48;;;4.53;;
44694;SDS011;32845;59.422;17.930;2023-07-31T16:46:51;9.02;;;3.42;;
44694;SDS011;32845;59.422;17.930;2023-07-31T16:51:22;10.13;;;3.55;;
44694;SDS011;32845;59.422;17.930;2023-07-31T16:55:53;11.18;;;3.38;;
44694;SDS011;32845;59.422;17.930;2023-07-31T17:00:23;16.48;;;3.00;;
44694;SDS011;32845;59.422;17.930;2023-07-31T17:04:54;14.85;;;3.13;;
44694;SDS011;32845;59.422;17.930;2023-07-31T17:09:25;12.43;;;3.22;;
44694;SDS011;32845;59.422;17.930;2023-07-31T17:13:56;8.93;;;2.88;;
44694;SDS011;32845;59.422;17.930;2023-07-31T17:18:27;6.30;;;2.53;;
44694;SDS011;32845;59.422;17.930;2023-07-31T17:22:57;11.20;;;2.55;;
44694;SDS011;32845;59.422;17.930;2023-07-31T17:27:28;7.00;;;2.42;;
44694;SDS011;32845;59.422;17.930;2023-07-31T17:31:59;4.32;;;2.28;;
44694;SDS011;32845;59.422;17.930;2023-07-31T17:36:29;8.75;;;2.83;;
44694;SDS011;32845;59.422;17.930;2023-07-31T17:41:02;7.90;;;2.58;;
44694;SDS011;32845;59.422;17.930;2023-07-31T17:45:33;11.20;;;2.67;;
44694;SDS011;32845;59.422;17.930;2023-07-31T17:50:04;4.85;;;2.13;;
44694;SDS011;32845;59.422;17.930;2023-07-31T17:54:35;5.40;;;2.42;;
44694;SDS011;32845;59.422;17.930;2023-07-31T17:59:05;13.30;;;2.28;;
44694;SDS011;32845;59.422;17.930;2023-07-31T18:03:36;5.55;;;2.33;;
44694;SDS011;32845;59.422;17.930;2023-07-31T18:08:07;6.85;;;3.00;;
44694;SDS011;32845;59.422;17.930;2023-07-31T18:12:38;6.32;;;2.53;;
44694;SDS011;32845;59.422;17.930;2023-07-31T18:17:09;4.60;;;2.25;;
44694;SDS011;32845;59.422;17.930;2023-07-31T18:21:41;5.13;;;2.20;;
44694;SDS011;32845;59.422;17.930;2023-07-31T18:26:12;5.30;;;2.30;;
44694;SDS011;32845;59.422;17.930;2023-07-31T18:30:42;5.28;;;2.50;;
44694;SDS011;32845;59.422;17.930;2023-07-31T18:35:13;5.68;;;2.20;;
44694;SDS011;32845;59.422;17.930;2023-07-31T18:39:47;8.13;;;2.55;;
44694;SDS011;32845;59.422;17.930;2023-07-31T18:44:17;4.28;;;2.70;;
44694;SDS011;32845;59.422;17.930;2023-07-31T18:48:48;7.15;;;2.47;;
44694;SDS011;32845;59.422;17.930;2023-07-31T18:53:19;7.55;;;2.28;;
44694;SDS011;32845;59.422;17.930;2023-07-31T18:57:49;10.18;;;2.40;;
44694;SDS011;32845;59.422;17.930;2023-07-31T19:02:20;11.70;;;3.30;;
44694;SDS011;32845;59.422;17.930;2023-07-31T19:06:51;6.82;;;2.80;;
44694;SDS011;32845;59.422;17.930;2023-07-31T19:11:22;6.22;;;3.38;;
44694;SDS011;32845;59.422;17.930;2023-07-31T19:15:52;10.50;;;3.30;;
44694;SDS011;32845;59.422;17.930;2023-07-31T19:20:24;4.97;;;2.78;;
44694;SDS011;32845;59.422;17.930;2023-07-31T19:24:55;7.53;;;2.90;;
44694;SDS011;32845;59.422;17.930;2023-07-31T19:29:25;6.70;;;3.00;;
44694;SDS011;32845;59.422;17.930;2023-07-31T19:33:56;6.82;;;3.10;;
44694;SDS011;32845;59.422;17.930;2023-07-31T19:38:26;10.30;;;2.92;;
44694;SDS011;32845;59.422;17.930;2023-07-31T19:42:57;6.00;;;3.00;;
44694;SDS011;32845;59.422;17.930;2023-07-31T19:47:29;9.10;;;2.72;;
44694;SDS011;32845;59.422;17.930;2023-07-31T19:52:00;5.72;;;2.75;;
44694;SDS011;32845;59.422;17.930;2023-07-31T19:56:31;6.15;;;2.80;;
44694;SDS011;32845;59.422;17.930;2023-07-31T20:01:01;9.35;;;2.70;;
44694;SDS011;32845;59.422;17.930;2023-07-31T20:05:32;8.32;;;2.75;;
44694;SDS011;32845;59.422;17.930;2023-07-31T20:10:02;7.43;;;2.95;;
44694;SDS011;32845;59.422;17.930;2023-07-31T20:14:33;5.10;;;2.42;;
44694;SDS011;32845;59.422;17.930;2023-07-31T20:19:04;7.70;;;2.65;;
44694;SDS011;32845;59.422;17.930;2023-07-31T20:23:34;10.48;;;2.78;;
44694;SDS011;32845;59.422;17.930;2023-07-31T20:28:06;5.00;;;2.35;;
44694;SDS011;32845;59.422;17.930;2023-07-31T20:32:37;9.02;;;2.75;;
44694;SDS011;32845;59.422;17.930;2023-07-31T20:37:07;7.63;;;2.45;;
44694;SDS011;32845;59.422;17.930;2023-07-31T20:41:38;9.70;;;2.85;;
44694;SDS011;32845;59.422;17.930;2023-07-31T20:46:08;9.32;;;2.97;;
44694;SDS011;32845;59.422;17.930;2023-07-31T20:50:39;13.32;;;3.15;;
44694;SDS011;32845;59.422;17.930;2023-07-31T20:55:10;11.18;;;2.35;;
44694;SDS011;32845;59.422;17.930;2023-07-31T20:59:40;8.93;;;2.28;;
44694;SDS011;32845;59.422;17.930;2023-07-31T21:04:11;11.20;;;2.42;;
44694;SDS011;32845;59.422;17.930;2023-07-31T21:08:42;6.40;;;2.03;;
44694;SDS011;32845;59.422;17.930;2023-07-31T21:13:13;7.38;;;1.70;;
44694;SDS011;32845;59.422;17.930;2023-07-31T21:17:43;7.57;;;1.92;;
44694;SDS011;32845;59.422;17.930;2023-07-31T21:22:14;4.15;;;1.52;;
44694;SDS011;32845;59.422;17.930;2023-07-31T21:26:44;4.97;;;1.50;;
44694;SDS011;32845;59.422;17.930;2023-07-31T21:31:15;6.50;;;1.90;;
44694;SDS011;32845;59.422;17.930;2023-07-31T21:35:46;3.72;;;1.30;;
44694;SDS011;32845;59.422;17.930;2023-07-31T21:40:16;7.43;;;2.03;;
44694;SDS011;32845;59.422;17.930;2023-07-31T21:44:47;6.82;;;1.42;;
44694;SDS011;32845;59.422;17.930;2023-07-31T21:49:17;7.72;;;1.13;;
44694;SDS011;32845;59.422;17.930;2023-07-31T21:53:48;3.00;;;1.00;;
44694;SDS011;32845;59.422;17.930;2023-07-31T21:58:19;4.50;;;1.50;;
44694;SDS011;32845;59.422;17.930;2023-07-31T22:02:49;5.28;;;1.30;;
44694;SDS011;32845;59.422;17.930;2023-07-31T22:07:22;7.10;;;1.33;;
44694;SDS011;32845;59.422;17.930;2023-07-31T22:11:53;4.72;;;1.48;;
44694;SDS011;32845;59.422;17.930;2023-07-31T22:16:23;7.88;;;1.45;;
44694;SDS011;32845;59.422;17.930;2023-07-31T22:20:54;4.28;;;1.38;;
44694;SDS011;32845;59.422;17.930;2023-07-31T22:25:24;12.15;;;1.33;;
44694;SDS011;32845;59.422;17.930;2023-07-31T22:29:55;8.65;;;1.42;;
44694;SDS011;32845;59.422;17.930;2023-07-31T22:34:25;4.07;;;1.20;;
44694;SDS011;32845;59.422;17.930;2023-07-31T22:38:56;5.22;;;1.27;;
44694;SDS011;32845;59.422;17.930;2023-07-31T22:43:27;5.70;;;1.42;;
44694;SDS011;32845;59.422;17.930;2023-07-31T22:47:57;5.28;;;1.50;;
44694;SDS011;32845;59.422;17.930;2023-07-31T22:52:28;3.00;;;1.10;;
44694;SDS011;32845;59.422;17.930;2023-07-31T22:56:59;7.45;;;1.55;;
44694;SDS011;32845;59.422;17.930;2023-07-31T23:01:29;4.55;;;1.60;;
44694;SDS011;32845;59.422;17.930;2023-07-31T23:06:00;4.38;;;1.50;;
44694;SDS011;32845;59.422;17.930;2023-07-31T23:10:30;6.10;;;1.70;;
44694;SDS011;32845;59.422;17.930;2023-07-31T23:15:01;3.78;;;1.50;;
44694;SDS011;32845;59.422;17.930;2023-07-31T23:19:31;3.53;;;1.55;;
44694;SDS011;32845;59.422;17.930;2023-07-31T23:24:02;6.13;;;1.63;;
44694;SDS011;32845;59.422;17.930;2023-07-31T23:28:33;4.55;;;1.40;;
44694;SDS011;32845;59.422;17.930;2023-07-31T23:33:03;6.85;;;1.58;;
44694;SDS011;32845;59.422;17.930;2023-07-31T23:37:34;5.57;;;1.60;;
44694;SDS011;32845;59.422;17.930;2023-07-31T23:42:05;8.50;;;1.70;;
44694;SDS011;32845;59.422;17.930;2023-07-31T23:46:35;6.45;;;1.65;;
44694;SDS011;32845;59.422;17.930;2023-07-31T23:51:06;6.65;;;1.80;;
44694;SDS011;32845;59.422;17.930;2023-07-31T23:55:37;7.03;;;1.67;;
